Time;durP1;ratioP1;P1;durP2;ratioP2;P2;SDS_P1;SDS_P2;PMS_P1;PMS_P2;Temp;Humidity;BMP_temperature;BMP_pressure;BME280_temperature;BME280_humidity;BME280_pressure;Samples;Min_cycle;Max_cycle;Signal;HPM_P1;HPM_P2
2022/08/11 00:00:07;;;;;;;;;;;25.90;51.80;;;;;;5094842;28;20393;-96
2022/08/11 00:02:33;;;;;;;;;;;25.90;51.50;;;;;;5076255;28;19966;-96
2022/08/11 00:05:04;;;;;;;;;;;25.90;51.40;;;;;;5076282;28;19950;-96
2022/08/11 00:07:31;;;;;;;;;;;25.90;51.40;;;;;;5094686;28;19944;-95
2022/08/11 00:09:57;;;;;;;;;;;25.90;51.30;;;;;;5094461;28;19942;-96
2022/08/11 00:12:22;;;;;;;;;;;25.80;51.40;;;;;;5094722;28;19941;-96
2022/08/11 00:14:55;;;;;;;;;;;25.80;51.20;;;;;;5094388;28;20016;-96
2022/08/11 00:17:25;;;;;;;;;;;25.80;51.30;;;;;;5094582;28;20057;-96
2022/08/11 00:19:51;;;;;;;;;;;25.80;51.10;;;;;;5094271;28;20389;-96
2022/08/11 00:22:21;;;;;;;;;;;25.70;50.90;;;;;;5076041;28;19994;-96
2022/08/11 00:24:47;;;;;;;;;;;25.70;50.90;;;;;;5094478;28;19986;-96
2022/08/11 00:27:12;;;;;;;;;;;25.70;51.00;;;;;;5094457;28;19943;-96
2022/08/11 00:29:38;;;;;;;;;;;25.70;50.90;;;;;;5094468;28;19934;-96
2022/08/11 00:32:05;;;;;;;;;;;25.70;50.80;;;;;;5094403;28;19942;-96
2022/08/11 00:34:32;;;;;;;;;;;25.60;50.70;;;;;;5094312;28;19988;-96
2022/08/11 00:37:00;;;;;;;;;;;25.60;50.70;;;;;;5075889;28;19958;-96
2022/08/11 00:39:26;;;;;;;;;;;25.50;50.60;;;;;;5075914;28;19941;-96
2022/08/11 00:41:54;;;;;;;;;;;25.50;50.60;;;;;;5101103;22;19984;-96
2022/08/11 00:44:26;;;;;;;;;;;25.50;50.30;;;;;;5094440;28;19948;-95
2022/08/11 00:47:10;;;;;;;;;;;25.50;49.80;;;;;;5095117;28;19935;-96
2022/08/11 00:49:52;;;;;;;;;;;25.50;49.50;;;;;;5094132;28;19962;-96
2022/08/11 00:52:36;;;;;;;;;;;25.60;49.30;;;;;;5094809;28;19943;-96
2022/08/11 00:55:10;;;;;;;;;;;25.70;49.00;;;;;;5094326;28;19949;-96
2022/08/11 00:57:36;;;;;;;;;;;25.70;48.60;;;;;;5094185;28;19937;-96
2022/08/11 01:00:12;;;;;;;;;;;25.70;48.50;;;;;;5094718;28;19936;-96
2022/08/11 01:02:40;;;;;;;;;;;25.60;48.50;;;;;;5094681;28;19966;-96
2022/08/11 01:05:35;;;;;;;;;;;25.60;48.50;;;;;;5098378;28;19935;-96
2022/08/11 01:08:07;;;;;;;;;;;25.50;48.70;;;;;;5080737;28;19939;-96
2022/08/11 01:10:42;;;;;;;;;;;25.50;48.80;;;;;;5099673;28;19953;-96
2022/08/11 01:13:14;;;;;;;;;;;25.50;48.80;;;;;;5099480;28;19944;-96
2022/08/11 01:15:39;;;;;;;;;;;25.40;48.70;;;;;;5099508;28;19936;-96
2022/08/11 01:18:25;;;;;;;;;;;25.40;48.70;;;;;;5098917;28;20412;-96
2022/08/11 01:21:08;;;;;;;;;;;25.30;48.90;;;;;;5099008;28;19937;-96
2022/08/11 01:23:46;;;;;;;;;;;25.30;48.90;;;;;;5098947;28;20030;-96
2022/08/11 01:26:12;;;;;;;;;;;25.30;48.80;;;;;;5098729;28;19960;-96
2022/08/11 01:28:43;;;;;;;;;;;25.30;48.00;;;;;;5098516;28;19938;-96
2022/08/11 01:31:09;;;;;;;;;;;25.30;48.10;;;;;;5098571;28;20060;-96
2022/08/11 01:33:34;;;;;;;;;;;25.20;48.00;;;;;;5098697;28;20044;-96
2022/08/11 01:36:19;;;;;;;;;;;25.20;48.40;;;;;;5098330;28;19958;-96
2022/08/11 01:39:03;;;;;;;;;;;25.10;48.40;;;;;;5098584;28;20004;-96
2022/08/11 01:44:58;;;;;;;;;;;25.00;48.50;;;;;;5097720;28;19998;-96
2022/08/11 01:47:51;;;;;;;;;;;24.90;48.50;;;;;;5098071;28;19943;-96
2022/08/11 01:50:27;;;;;;;;;;;24.80;48.60;;;;;;5098042;28;19960;-96
2022/08/11 01:53:06;;;;;;;;;;;24.80;48.40;;;;;;5079460;28;19937;-96
2022/08/11 01:55:53;;;;;;;;;;;24.80;48.10;;;;;;5097859;28;19936;-96
2022/08/11 01:58:31;;;;;;;;;;;24.70;48.20;;;;;;5079141;28;19943;-96
2022/08/11 02:01:15;;;;;;;;;;;24.70;48.30;;;;;;5097843;28;19944;-96
2022/08/11 02:03:45;;;;;;;;;;;24.70;48.20;;;;;;5096906;28;19968;-96
2022/08/11 02:09:18;;;;;;;;;;;24.70;48.00;;;;;;5097117;28;20456;-96
2022/08/11 02:11:44;;;;;;;;;;;24.80;47.90;;;;;;5096743;28;19944;-96
2022/08/11 02:14:10;;;;;;;;;;;24.80;47.90;;;;;;5096492;28;19941;-96
2022/08/11 02:16:47;;;;;;;;;;;24.80;47.80;;;;;;5096950;28;19935;-96
2022/08/11 02:25:19;;;;;;;;;;;24.70;48.10;;;;;;5058600;28;20410;-96
2022/08/11 02:28:08;;;;;;;;;;;24.70;51.50;;;;;;5096691;28;19974;-96
2022/08/11 02:30:37;;;;;;;;;;;24.70;51.80;;;;;;5049575;28;19947;-96
2022/08/11 02:33:23;;;;;;;;;;;24.60;52.80;;;;;;5096846;28;19944;-96
2022/08/11 02:35:58;;;;;;;;;;;24.50;52.40;;;;;;5078052;28;20008;-96
2022/08/11 02:38:27;;;;;;;;;;;24.40;53.80;;;;;;5061360;28;19948;-96
2022/08/11 02:40:52;;;;;;;;;;;24.40;53.80;;;;;;5096773;28;19945;-96
2022/08/11 02:43:18;;;;;;;;;;;24.40;55.80;;;;;;5095946;28;19979;-96
2022/08/11 02:46:09;;;;;;;;;;;24.40;53.10;;;;;;5096347;28;19937;-96
2022/08/11 02:51:41;;;;;;;;;;;24.40;50.30;;;;;;5095958;28;20448;-96
2022/08/11 02:54:06;;;;;;;;;;;24.30;50.30;;;;;;5096423;28;20405;-96
2022/08/11 02:56:44;;;;;;;;;;;24.30;50.30;;;;;;5095940;28;19948;-95
2022/08/11 03:04:36;;;;;;;;;;;24.30;50.70;;;;;;5125251;27;20317;-96
2022/08/11 03:07:14;;;;;;;;;;;24.20;54.00;;;;;;5101600;28;19948;-96
2022/08/11 03:09:49;;;;;;;;;;;24.20;56.40;;;;;;5092714;28;19935;-96
2022/08/11 03:17:51;;;;;;;;;;;23.80;54.60;;;;;;5092071;28;20344;-96
2022/08/11 03:20:28;;;;;;;;;;;23.80;55.10;;;;;;5092352;28;19946;-96
2022/08/11 03:22:56;;;;;;;;;;;23.80;56.50;;;;;;5091800;28;19956;-96
2022/08/11 03:25:31;;;;;;;;;;;23.70;57.30;;;;;;5092519;28;20005;-96
2022/08/11 03:28:13;;;;;;;;;;;23.70;58.50;;;;;;5091943;28;19984;-96
2022/08/11 03:30:42;;;;;;;;;;;23.60;59.10;;;;;;5092717;28;19934;-96
2022/08/11 03:36:12;;;;;;;;;;;23.40;54.10;;;;;;5092900;28;19959;-96
2022/08/11 03:38:50;;;;;;;;;;;23.50;53.60;;;;;;5092965;28;19976;-96
2022/08/11 03:44:17;;;;;;;;;;;23.70;53.90;;;;;;5092634;28;19981;-96
2022/08/11 03:47:02;;;;;;;;;;;23.60;52.70;;;;;;5090848;28;19989;-96
2022/08/11 03:49:40;;;;;;;;;;;23.50;55.60;;;;;;5092225;28;19937;-96
2022/08/11 03:52:05;;;;;;;;;;;23.40;56.00;;;;;;5091738;28;19951;-96
2022/08/11 03:54:31;;;;;;;;;;;23.30;57.10;;;;;;5091802;28;20302;-96
2022/08/11 03:57:15;;;;;;;;;;;23.20;57.60;;;;;;5090046;28;19946;-96
2022/08/11 04:00:00;;;;;;;;;;;23.10;56.50;;;;;;5091734;28;19946;-96
2022/08/11 04:02:45;;;;;;;;;;;23.00;57.90;;;;;;5096241;28;20033;-96
2022/08/11 04:05:17;;;;;;;;;;;23.00;57.10;;;;;;5110878;28;19939;-96
2022/08/11 04:07:45;;;;;;;;;;;22.90;54.70;;;;;;5111940;28;19982;-96
2022/08/11 04:10:16;;;;;;;;;;;22.80;57.00;;;;;;5111492;28;19967;-96
2022/08/11 04:12:42;;;;;;;;;;;22.60;59.90;;;;;;5112055;28;19941;-96
2022/08/11 04:17:56;;;;;;;;;;;22.00;60.60;;;;;;5098570;28;19959;-96
2022/08/11 04:20:25;;;;;;;;;;;22.00;61.00;;;;;;5098513;28;19942;-96
2022/08/11 04:23:08;;;;;;;;;;;22.10;59.10;;;;;;5098051;28;19954;-96
2022/08/11 04:25:43;;;;;;;;;;;22.00;60.20;;;;;;5098163;28;19935;-96
2022/08/11 04:28:27;;;;;;;;;;;22.00;60.80;;;;;;5110751;28;19939;-96
2022/08/11 04:31:12;;;;;;;;;;;21.90;60.70;;;;;;5109733;28;19946;-96
2022/08/11 04:33:50;;;;;;;;;;;21.80;61.10;;;;;;5109479;28;20041;-96
2022/08/11 04:39:32;;;;;;;;;;;21.90;61.80;;;;;;5109060;28;19994;-96
2022/08/11 04:45:15;;;;;;;;;;;22.00;62.70;;;;;;5109627;28;20010;-96
2022/08/11 05:02:47;;;;;;;;;;;22.10;64.00;;;;;;5094456;28;19998;-96
2022/08/11 05:05:31;;;;;;;;;;;21.70;65.80;;;;;;5109565;28;20036;-96
2022/08/11 05:07:57;;;;;;;;;;;21.40;66.10;;;;;;5108511;28;19945;-96
2022/08/11 05:10:41;;;;;;;;;;;21.50;65.50;;;;;;5109719;28;19975;-96
2022/08/11 05:35:55;;;;;;;;;;;22.70;61.40;;;;;;5105450;28;20038;-96
2022/08/11 05:58:01;;;;;;;;;;;23.50;54.90;;;;;;5104719;28;19995;-96
2022/08/11 06:00:27;;;;;;;;;;;23.70;54.40;;;;;;5105666;28;19953;-96
2022/08/11 06:02:56;;;;;;;;;;;23.70;54.10;;;;;;5106627;28;20003;-96
2022/08/11 06:05:22;;;;;;;;;;;23.80;54.50;;;;;;5107553;28;20393;-96
2022/08/11 06:07:48;;;;;;;;;;;24.00;54.20;;;;;;5107868;28;19948;-96
2022/08/11 06:10:24;;;;;;;;;;;24.30;53.20;;;;;;5109651;28;19956;-96
2022/08/11 06:12:52;;;;;;;;;;;24.60;51.10;;;;;;5110196;28;20017;-96
2022/08/11 06:15:18;;;;;;;;;;;24.80;50.40;;;;;;5112431;28;19941;-96
2022/08/11 06:17:45;;;;;;;;;;;25.10;49.20;;;;;;5112936;28;20076;-96
2022/08/11 06:20:12;;;;;;;;;;;25.20;50.00;;;;;;5112870;28;19946;-96
2022/08/11 06:22:41;;;;;;;;;;;25.30;47.90;;;;;;5112260;28;20023;-96
2022/08/11 06:25:07;;;;;;;;;;;25.50;47.20;;;;;;5111613;28;19958;-96
2022/08/11 06:27:35;;;;;;;;;;;25.50;47.30;;;;;;5112449;28;19991;-96
2022/08/11 06:30:02;;;;;;;;;;;25.50;47.80;;;;;;5110562;28;19942;-96
2022/08/11 06:32:31;;;;;;;;;;;25.50;49.60;;;;;;5110797;28;19946;-96
2022/08/11 06:35:03;;;;;;;;;;;25.60;49.90;;;;;;5110210;28;19940;-96
2022/08/11 06:38:08;;;;;;;;;;;25.60;48.40;;;;;;5109348;28;20006;-96
2022/08/11 06:41:29;;;;;;;;;;;25.70;48.20;;;;;;5053420;28;19955;-96
2022/08/11 06:43:46;;;;;;;;;;;25.70;46.80;;;;;;5070329;28;19974;-96
2022/08/11 06:46:14;;;;;;;;;;;25.80;49.10;;;;;;5103048;28;20488;-96
2022/08/11 06:48:43;;;;;;;;;;;25.90;49.10;;;;;;5111435;28;19939;-96
2022/08/11 06:51:12;;;;;;;;;;;26.00;47.50;;;;;;5111838;28;19999;-96
2022/08/11 06:53:59;;;;;;;;;;;26.10;46.30;;;;;;5113290;28;20386;-96
2022/08/11 07:02:14;;;;;;;;;;;26.30;40.50;;;;;;5114003;28;19941;-96
2022/08/11 07:04:44;;;;;;;;;;;26.50;41.00;;;;;;5112338;28;19951;-96
2022/08/11 07:16:13;;;;;;;;;;;27.10;34.40;;;;;;5112210;28;19974;-96
2022/08/11 07:30:07;;;;;;;;;;;27.30;35.40;;;;;;5103043;28;19981;-96
2022/08/11 07:32:36;;;;;;;;;;;27.30;37.60;;;;;;5099023;28;20033;-96
2022/08/11 07:35:07;;;;;;;;;;;27.30;38.00;;;;;;5101632;28;19941;-96
2022/08/11 07:37:33;;;;;;;;;;;27.30;35.50;;;;;;5099728;28;20100;-96
2022/08/11 07:39:59;;;;;;;;;;;27.40;36.60;;;;;;5098773;28;20391;-96
2022/08/11 07:42:30;;;;;;;;;;;27.40;35.60;;;;;;5098707;28;19956;-96
2022/08/11 07:53:11;;;;;;;;;;;27.60;34.00;;;;;;5097592;28;19942;-96
2022/08/11 07:55:37;;;;;;;;;;;27.70;34.90;;;;;;5097949;28;20034;-96
2022/08/11 08:20:01;;;;;;;;;;;28.70;33.50;;;;;;5114148;28;19947;-96
2022/08/11 08:22:27;;;;;;;;;;;28.90;33.80;;;;;;5110622;28;19976;-96
2022/08/11 08:24:55;;;;;;;;;;;29.10;33.10;;;;;;5112909;28;19943;-96
2022/08/11 08:27:21;;;;;;;;;;;29.20;33.00;;;;;;5111759;28;19945;-96
2022/08/11 08:32:33;;;;;;;;;;;29.40;32.70;;;;;;5115617;28;19987;-96
2022/08/11 08:34:59;;;;;;;;;;;29.40;32.80;;;;;;5112684;28;19940;-96
2022/08/11 08:37:25;;;;;;;;;;;29.50;33.00;;;;;;5112587;28;20025;-96
2022/08/11 08:39:51;;;;;;;;;;;29.50;32.40;;;;;;5111601;28;19953;-96
2022/08/11 08:42:28;;;;;;;;;;;29.50;32.00;;;;;;5110369;28;19968;-96
2022/08/11 08:44:57;;;;;;;;;;;29.50;32.70;;;;;;5111603;28;19939;-96
2022/08/11 08:47:25;;;;;;;;;;;29.60;32.30;;;;;;5110433;28;19967;-96
2022/08/11 08:49:56;;;;;;;;;;;29.70;32.50;;;;;;5109055;28;19940;-96
2022/08/11 08:52:23;;;;;;;;;;;29.80;34.50;;;;;;5109874;28;19993;-96
2022/08/11 08:54:54;;;;;;;;;;;29.90;35.70;;;;;;5109729;28;19946;-96
2022/08/11 08:57:26;;;;;;;;;;;29.90;32.40;;;;;;5102120;28;19941;-96
2022/08/11 08:59:52;;;;;;;;;;;30.00;32.40;;;;;;5099277;28;19943;-96
2022/08/11 09:02:18;;;;;;;;;;;29.90;32.70;;;;;;5095722;28;20444;-96
2022/08/11 09:04:45;;;;;;;;;;;29.80;34.10;;;;;;5098740;28;19940;-96
2022/08/11 09:07:11;;;;;;;;;;;29.80;32.20;;;;;;5097619;28;20036;-96
2022/08/11 09:09:42;;;;;;;;;;;29.70;33.60;;;;;;5097727;28;19944;-96
2022/08/11 09:12:09;;;;;;;;;;;29.70;33.20;;;;;;5097800;28;19942;-96
2022/08/11 09:17:29;;;;;;;;;;;29.70;33.00;;;;;;5109585;28;19972;-96
2022/08/11 09:20:15;;;;;;;;;;;29.80;33.60;;;;;;5114347;28;19948;-96
2022/08/11 09:28:13;;;;;;;;;;;29.80;33.10;;;;;;5114139;28;19963;-96
2022/08/11 09:30:43;;;;;;;;;;;29.90;33.30;;;;;;5111992;28;19942;-96
2022/08/11 09:33:11;;;;;;;;;;;30.00;33.30;;;;;;5102937;28;20334;-96
2022/08/11 09:35:37;;;;;;;;;;;30.00;33.00;;;;;;5102246;28;19943;-96
2022/08/11 09:40:49;;;;;;;;;;;30.20;33.00;;;;;;5104374;28;19946;-96
2022/08/11 09:46:00;;;;;;;;;;;30.20;32.40;;;;;;5103285;28;19988;-96
2022/08/11 09:48:27;;;;;;;;;;;30.30;32.30;;;;;;5103780;28;19941;-96
2022/08/11 09:50:55;;;;;;;;;;;30.40;31.30;;;;;;5100128;28;19945;-96
2022/08/11 09:53:22;;;;;;;;;;;30.50;31.60;;;;;;5094998;28;20323;-96
2022/08/11 09:55:49;;;;;;;;;;;30.50;31.90;;;;;;5096681;28;19988;-96
2022/08/11 09:58:16;;;;;;;;;;;30.60;33.80;;;;;;5097219;28;19938;-96
2022/08/11 10:00:43;;;;;;;;;;;30.70;31.10;;;;;;5096978;28;19981;-96
2022/08/11 10:03:10;;;;;;;;;;;30.80;31.90;;;;;;5095479;28;19978;-96
2022/08/11 10:08:21;;;;;;;;;;;30.90;32.10;;;;;;5096237;28;19981;-96
2022/08/11 10:10:48;;;;;;;;;;;30.80;31.40;;;;;;5097186;28;19948;-96
2022/08/11 10:13:16;;;;;;;;;;;30.90;30.40;;;;;;5097839;28;19952;-96
2022/08/11 10:15:44;;;;;;;;;;;30.90;33.30;;;;;;5101621;28;20001;-96
2022/08/11 10:20:58;;;;;;;;;;;31.30;30.00;;;;;;5101661;28;19953;-96
2022/08/11 10:28:54;;;;;;;;;;;31.30;30.10;;;;;;5101959;28;19960;-96
2022/08/11 10:34:05;;;;;;;;;;;31.40;30.50;;;;;;5100484;28;20345;-96
2022/08/11 10:36:47;;;;;;;;;;;31.40;30.40;;;;;;5102805;28;19959;-96
2022/08/11 10:39:16;;;;;;;;;;;31.50;29.00;;;;;;5102299;28;19941;-96
2022/08/11 10:44:32;;;;;;;;;;;31.60;28.50;;;;;;5098932;28;19952;-96
2022/08/11 10:49:43;;;;;;;;;;;31.70;29.60;;;;;;5103803;28;19949;-96
2022/08/11 11:00:23;;;;;;;;;;;31.70;27.30;;;;;;5098698;28;19943;-96
2022/08/11 11:02:49;;;;;;;;;;;31.60;28.20;;;;;;5106231;22;20118;-96
2022/08/11 11:05:15;;;;;;;;;;;31.70;27.40;;;;;;5057459;28;19990;-96
2022/08/11 11:07:51;;;;;;;;;;;31.70;29.70;;;;;;5055780;28;19948;-96
2022/08/11 11:10:17;;;;;;;;;;;31.70;28.60;;;;;;5057853;28;20385;-96
2022/08/11 11:18:18;;;;;;;;;;;32.30;28.00;;;;;;5058451;28;19995;-96
2022/08/11 11:20:50;;;;;;;;;;;32.40;27.30;;;;;;5054919;28;19973;-96
2022/08/11 11:23:19;;;;;;;;;;;32.40;27.20;;;;;;5056770;28;19958;-96
2022/08/11 11:26:08;;;;;;;;;;;32.60;28.50;;;;;;5059129;28;20419;-96
2022/08/11 11:28:37;;;;;;;;;;;32.70;28.60;;;;;;5060245;28;19936;-96
2022/08/11 11:31:09;;;;;;;;;;;32.90;25.90;;;;;;5058719;28;19941;-96
2022/08/11 11:33:41;;;;;;;;;;;32.80;27.00;;;;;;5059488;28;19992;-96
2022/08/11 11:36:18;;;;;;;;;;;32.90;26.30;;;;;;5065115;28;19954;-96
2022/08/11 11:38:44;;;;;;;;;;;32.90;26.60;;;;;;5079083;28;19939;-96
2022/08/11 11:41:25;;;;;;;;;;;33.00;25.80;;;;;;5078215;28;19946;-96
2022/08/11 11:43:53;;;;;;;;;;;32.70;26.50;;;;;;5078149;28;19971;-96
2022/08/11 11:46:19;;;;;;;;;;;32.60;27.10;;;;;;5077512;28;20388;-96
2022/08/11 11:48:44;;;;;;;;;;;32.90;26.30;;;;;;5079858;28;19936;-96
2022/08/11 11:51:12;;;;;;;;;;;33.20;27.40;;;;;;5078914;28;19988;-96
2022/08/11 11:53:41;;;;;;;;;;;33.20;26.80;;;;;;5076807;28;20329;-96
2022/08/11 11:56:07;;;;;;;;;;;33.40;27.40;;;;;;5077842;28;20390;-96
2022/08/11 12:01:26;;;;;;;;;;;33.70;26.20;;;;;;5070476;28;19942;-96
2022/08/11 12:08:14;;;;;;;;;;;33.80;26.80;;;;;;5029393;28;19966;-96
2022/08/11 12:10:43;;;;;;;;;;;34.30;24.80;;;;;;5029405;28;19943;-96
2022/08/11 12:15:53;;;;;;;;;;;34.80;24.80;;;;;;5029490;28;19950;-96
2022/08/11 12:18:19;;;;;;;;;;;35.10;25.50;;;;;;5027519;28;19941;-96
2022/08/11 12:20:45;;;;;;;;;;;35.40;24.10;;;;;;5029300;28;19987;-96
2022/08/11 12:28:42;;;;;;;;;;;36.50;23.40;;;;;;5031699;28;19953;-96
2022/08/11 12:31:08;;;;;;;;;;;36.90;23.20;;;;;;5030506;28;20456;-96
2022/08/11 12:33:35;;;;;;;;;;;37.10;22.20;;;;;;5030772;28;19974;-96
2022/08/11 12:36:01;;;;;;;;;;;36.80;22.40;;;;;;5030379;28;19971;-96
2022/08/11 12:38:26;;;;;;;;;;;36.90;22.80;;;;;;5030737;28;19940;-96
2022/08/11 12:58:27;;;;;;;;;;;35.80;23.20;;;;;;5028610;28;20029;-96
2022/08/11 13:05:24;;;;;;;;;;;37.90;22.60;;;;;;5029835;28;19989;-96
2022/08/11 13:07:50;;;;;;;;;;;40.00;19.70;;;;;;5028556;28;20036;-96
2022/08/11 13:12:46;;;;;;;;;;;40.70;18.00;;;;;;5028916;28;19977;-96
2022/08/11 13:13:03;;;;;;;;;;;41.10;18.00;;;;;;5028321;28;19940;-96
2022/08/11 13:15:29;;;;;;;;;;;41.90;19.40;;;;;;5029557;28;20038;-96
2022/08/11 13:17:55;;;;;;;;;;;43.00;17.00;;;;;;5028877;28;19943;-96
2022/08/11 13:20:22;;;;;;;;;;;43.50;17.40;;;;;;5028259;28;19938;-96
2022/08/11 13:22:48;;;;;;;;;;;43.50;16.60;;;;;;5028304;28;19945;-96
2022/08/11 13:25:16;;;;;;;;;;;42.90;17.00;;;;;;5029537;28;19940;-96
2022/08/11 13:27:42;;;;;;;;;;;42.50;16.70;;;;;;5029533;28;19995;-96
2022/08/11 13:32:54;;;;;;;;;;;42.70;17.10;;;;;;5028747;28;19973;-96
2022/08/11 13:35:21;;;;;;;;;;;41.90;16.50;;;;;;5027626;28;20082;-96
2022/08/11 13:37:49;;;;;;;;;;;41.70;17.20;;;;;;5028730;28;20088;-96
2022/08/11 13:40:16;;;;;;;;;;;42.70;17.60;;;;;;5028062;28;20327;-96
2022/08/11 13:42:43;;;;;;;;;;;42.90;16.90;;;;;;5028210;28;19943;-96
2022/08/11 13:45:09;;;;;;;;;;;42.90;16.90;;;;;;5031171;28;19964;-96
2022/08/11 13:47:35;;;;;;;;;;;42.80;17.00;;;;;;5032112;28;19948;-96
2022/08/11 13:50:01;;;;;;;;;;;41.60;17.50;;;;;;5029823;28;20484;-96
2022/08/11 13:52:27;;;;;;;;;;;40.90;17.80;;;;;;5031756;28;19946;-96
2022/08/11 13:57:20;;;;;;;;;;;40.60;18.30;;;;;;5036018;28;19947;-96
2022/08/11 14:01:47;;;;;;;;;;;41.60;18.50;;;;;;5034497;28;19948;-96
2022/08/11 14:04:13;;;;;;;;;;;43.20;16.00;;;;;;5028852;28;19944;-96
2022/08/11 14:06:45;;;;;;;;;;;43.50;15.80;;;;;;5029100;28;19945;-96
2022/08/11 14:09:11;;;;;;;;;;;43.40;17.40;;;;;;5029105;28;20469;-96
2022/08/11 14:14:29;;;;;;;;;;;43.40;16.40;;;;;;5028165;28;19986;-96
2022/08/11 14:16:56;;;;;;;;;;;43.00;16.40;;;;;;5138452;23;19994;-96
2022/08/11 14:19:31;;;;;;;;;;;42.60;15.80;;;;;;5050723;28;19950;-96
2022/08/11 14:22:10;;;;;;;;;;;43.40;16.00;;;;;;5033734;28;20021;-96
2022/08/11 14:24:41;;;;;;;;;;;44.10;16.00;;;;;;5033088;28;19967;-96
2022/08/11 14:27:10;;;;;;;;;;;42.10;17.30;;;;;;5016484;28;19982;-96
2022/08/11 14:29:44;;;;;;;;;;;41.00;17.30;;;;;;5032606;28;19953;-96
2022/08/11 14:32:12;;;;;;;;;;;40.20;18.20;;;;;;5033192;28;19967;-96
2022/08/11 14:34:48;;;;;;;;;;;40.30;18.80;;;;;;5032155;28;19993;-96
2022/08/11 14:37:29;;;;;;;;;;;40.90;18.80;;;;;;5033531;28;19929;-96
2022/08/11 15:24:40;;;;;;;;;;;41.60;18.40;;;;;;6228342;23;20309;-96
2022/08/11 15:38:01;;;;;;;;;;;42.10;17.70;;;;;;5030097;28;20297;-96
2022/08/11 15:52:34;;;;;;;;;;;41.20;18.60;;;;;;5029487;28;20403;-96
2022/08/11 15:55:05;;;;;;;;;;;40.30;19.80;;;;;;5029024;28;19946;-96
2022/08/11 16:05:44;;;;;;;;;;;40.20;19.20;;;;;;5029787;28;20040;-96
2022/08/11 16:08:11;;;;;;;;;;;40.10;19.50;;;;;;5029012;28;19986;-96
2022/08/11 16:10:38;;;;;;;;;;;40.20;19.20;;;;;;5028174;28;19972;-96
2022/08/11 16:18:17;;;;;;;;;;;39.60;19.80;;;;;;5028194;28;19943;-96
2022/08/11 16:20:44;;;;;;;;;;;38.80;20.50;;;;;;5028250;28;20362;-96
2022/08/11 16:23:10;;;;;;;;;;;38.40;20.20;;;;;;5027604;28;20001;-96
2022/08/11 16:25:35;;;;;;;;;;;37.60;21.50;;;;;;5028013;28;20374;-96
2022/08/11 16:28:06;;;;;;;;;;;37.00;21.90;;;;;;5027731;28;19971;-96
2022/08/11 16:30:37;;;;;;;;;;;36.60;22.60;;;;;;5028036;28;19964;-96
2022/08/11 16:33:04;;;;;;;;;;;36.00;23.70;;;;;;5027851;28;19943;-96
2022/08/11 16:38:34;;;;;;;;;;;35.90;24.10;;;;;;5028138;28;20391;-96
2022/08/11 16:41:07;;;;;;;;;;;35.70;23.40;;;;;;5028300;28;20385;-96
2022/08/11 16:49:05;;;;;;;;;;;34.70;25.60;;;;;;5027645;28;19949;-96
2022/08/11 16:51:31;;;;;;;;;;;34.40;24.50;;;;;;5038840;28;20006;-96
2022/08/11 16:53:56;;;;;;;;;;;34.10;26.00;;;;;;5047096;28;19940;-96
2022/08/11 16:56:25;;;;;;;;;;;33.90;26.10;;;;;;5045917;28;19946;-96
2022/08/11 17:01:37;;;;;;;;;;;33.70;26.60;;;;;;5046360;28;20427;-96
2022/08/11 17:16:05;;;;;;;;;;;32.20;28.40;;;;;;5033512;28;20385;-96
2022/08/11 17:17:57;;;;;;;;;;;32.20;29.10;;;;;;5033069;28;20300;-96
2022/08/11 17:20:23;;;;;;;;;;;32.10;28.50;;;;;;5033463;28;19946;-96
2022/08/11 17:25:34;;;;;;;;;;;31.90;29.20;;;;;;5033140;28;19944;-96
2022/08/11 17:28:01;;;;;;;;;;;31.60;30.00;;;;;;5033624;28;19948;-96
2022/08/11 17:35:27;;;;;;;;;;;31.40;31.10;;;;;;5032914;28;20056;-96
2022/08/11 17:35:59;;;;;;;;;;;31.00;31.10;;;;;;5033367;28;20069;-96
2022/08/11 17:38:25;;;;;;;;;;;30.70;30.50;;;;;;5033453;28;19950;-96
2022/08/11 17:49:10;;;;;;;;;;;30.10;31.00;;;;;;5014035;28;19948;-96
2022/08/11 17:59:54;;;;;;;;;;;29.70;31.50;;;;;;5032963;28;20027;-96
2022/08/11 18:05:13;;;;;;;;;;;29.50;32.50;;;;;;5033597;28;19946;-96
